Time;durP1;ratioP1;P1;durP2;ratioP2;P2;SDS_P1;SDS_P2;PMS_P1;PMS_P2;Temp;Humidity;BMP_temperature;BMP_pressure;BME280_temperature;BME280_humidity;BME280_pressure;Samples;Min_cycle;Max_cycle;Signal;HPM_P1;HPM_P2
2022/08/05 00:02:04;;;;;;;10.40;4.07;;;;;;;21.07;61.68;100077.09;4168331;28;20301;-64
2022/08/05 00:04:36;;;;;;;12.20;4.70;;;;;;;20.99;61.63;100074.69;4153457;28;20249;-64
2022/08/05 00:07:05;;;;;;;10.80;4.77;;;;;;;20.93;62.12;100075.59;4149990;28;23118;-66
2022/08/05 00:09:52;;;;;;;7.00;4.10;;;;;;;20.99;62.26;100071.97;4137805;28;20240;-64
2022/08/05 00:12:20;;;;;;;6.27;4.30;;;;;;;20.93;62.45;100072.88;4150031;28;20641;-66
2022/08/05 00:14:47;;;;;;;11.87;4.27;;;;;;;20.88;62.98;100075.41;4142918;28;25736;-64
2022/08/05 00:17:17;;;;;;;9.63;4.50;;;;;;;20.87;63.05;100074.56;4150145;28;20509;-65
2022/08/05 00:19:45;;;;;;;11.90;4.50;;;;;;;20.83;62.81;100073.34;4156218;29;21668;-64
2022/08/05 00:22:28;;;;;;;10.17;4.83;;;;;;;20.83;62.96;100069.81;4146933;29;20239;-64
2022/08/05 00:24:56;;;;;;;11.47;4.83;;;;;;;20.70;63.51;100078.03;4175152;29;20590;-64
2022/08/05 00:27:23;;;;;;;8.80;4.50;;;;;;;20.68;64.13;100072.06;4181624;29;20657;-65
2022/08/05 00:30:02;;;;;;;8.23;4.40;;;;;;;20.70;63.85;100080.75;4154816;28;20237;-65
2022/08/05 00:32:29;;;;;;;10.83;4.90;;;;;;;20.74;63.88;100071.16;4144392;28;20238;-63
2022/08/05 00:34:56;;;;;;;10.50;4.83;;;;;;;20.74;64.08;100076.56;4142871;28;20363;-67
2022/08/05 00:37:33;;;;;;;8.33;4.80;;;;;;;20.64;64.56;100072.47;4153284;28;20238;-64
2022/08/05 00:40:17;;;;;;;14.07;4.97;;;;;;;20.61;64.61;100072.91;4127523;28;21633;-65
2022/08/05 00:42:58;;;;;;;13.17;4.60;;;;;;;20.54;65.66;100080.22;4151487;28;20235;-67
2022/08/05 00:45:24;;;;;;;9.93;4.80;;;;;;;20.56;65.17;100074.63;4149782;28;20236;-67
2022/08/05 00:48:14;;;;;;;11.27;4.50;;;;;;;20.58;65.24;100067.97;4130298;29;23052;-65
2022/08/05 00:50:43;;;;;;;9.57;5.20;;;;;;;20.43;65.68;100068.22;4152522;29;20238;-64
2022/08/05 00:53:16;;;;;;;13.67;4.93;;;;;;;20.40;66.46;100070.56;4147861;28;20305;-64
2022/08/05 00:56:04;;;;;;;9.83;4.93;;;;;;;20.50;65.90;100065.47;4139358;28;23442;-67
2022/08/05 00:58:33;;;;;;;10.07;4.50;;;;;;;20.41;66.27;100077.59;4143911;28;23213;-65
2022/08/05 01:01:02;;;;;;;11.27;5.30;;;;;;;20.41;66.36;100066.78;4142572;28;20243;-65
2022/08/05 01:03:34;;;;;;;11.77;4.40;;;;;;;20.39;66.48;100068.88;4154066;28;23062;-67
2022/08/05 01:06:01;;;;;;;10.53;4.57;;;;;;;20.41;66.88;100061.38;4163175;28;20245;-64
2022/08/05 01:08:30;;;;;;;16.10;4.70;;;;;;;20.37;66.93;100055.59;4166211;28;20722;-64
2022/08/05 01:11:22;;;;;;;7.93;4.60;;;;;;;20.34;67.11;100055.19;4166307;28;22165;-66
2022/08/05 01:14:10;;;;;;;14.07;4.53;;;;;;;20.28;67.56;100059.63;4173157;28;20296;-65
2022/08/05 01:16:50;;;;;;;11.60;4.60;;;;;;;20.34;67.32;100061.44;4158656;28;20377;-64
2022/08/05 01:19:20;;;;;;;10.63;4.60;;;;;;;20.28;67.80;100056.91;4169961;28;20258;-64
2022/08/05 01:22:14;;;;;;;8.33;4.50;;;;;;;20.32;67.67;100062.69;4161192;28;20244;-65
2022/08/05 01:24:49;;;;;;;9.93;4.50;;;;;;;20.36;67.86;100050.41;4166947;28;20236;-65
2022/08/05 01:27:51;;;;;;;10.60;4.63;;;;;;;20.16;68.66;100051.38;4169614;28;21672;-64
2022/08/05 01:30:23;;;;;;;7.40;4.60;;;;;;;20.17;68.42;100050.31;4163064;28;25533;-64
2022/08/05 01:33:02;;;;;;;10.93;4.43;;;;;;;20.11;69.16;100045.81;4172137;28;20241;-65
2022/08/05 01:35:31;;;;;;;8.87;4.50;;;;;;;20.01;69.91;100045.44;4152473;28;20292;-65
2022/08/05 01:38:19;;;;;;;10.53;4.47;;;;;;;20.08;69.56;100048.91;4153718;28;21468;-67
2022/08/05 01:40:54;;;;;;;12.27;4.90;;;;;;;20.00;70.05;100049.19;4169428;28;20705;-65
2022/08/05 01:43:21;;;;;;;13.63;4.60;;;;;;;19.89;70.51;100052.56;4163368;28;21765;-65
2022/08/05 01:45:50;;;;;;;5.53;3.97;;;;;;;19.96;70.37;100048.78;4141203;28;21142;-66
2022/08/05 01:48:24;;;;;;;10.60;4.20;;;;;;;19.96;70.18;100042.56;4166882;28;20613;-68
2022/08/05 01:50:54;;;;;;;15.80;4.70;;;;;;;19.92;70.69;100047.53;4171486;28;20258;-65
2022/08/05 01:53:21;;;;;;;9.47;4.30;;;;;;;19.89;70.87;100047.16;4165057;28;20238;-67
2022/08/05 01:56:08;;;;;;;10.87;4.77;;;;;;;19.94;70.76;100042.75;4165343;28;20241;-65
2022/08/05 01:58:35;;;;;;;9.93;5.00;;;;;;;19.97;70.79;100045.03;4171362;28;20238;-67
2022/08/05 02:01:12;;;;;;;8.17;4.70;;;;;;;20.03;70.32;100044.16;4152713;28;21159;-66
2022/08/05 02:03:43;;;;;;;11.60;4.30;;;;;;;19.99;70.50;100045.66;4179900;28;20240;-65
2022/08/05 02:06:10;;;;;;;7.97;4.20;;;;;;;19.98;70.57;100045.88;4166578;28;20234;-65
2022/08/05 02:08:57;;;;;;;7.43;3.90;;;;;;;19.89;71.20;100037.19;4162823;28;20241;-64
2022/08/05 02:11:25;;;;;;;10.40;4.40;;;;;;;19.88;71.36;100032.84;4163325;28;20299;-68
2022/08/05 02:14:08;;;;;;;8.53;4.13;;;;;;;19.84;71.40;100031.59;4161942;28;23024;-65
2022/08/05 02:16:50;;;;;;;12.57;4.40;;;;;;;19.78;71.66;100030.59;4152114;28;24289;-67
2022/08/05 02:19:31;;;;;;;6.83;4.40;;;;;;;19.79;72.06;100026.84;4149601;28;22864;-65
2022/08/05 02:22:17;;;;;;;8.27;4.10;;;;;;;19.77;72.47;100031.63;4159677;28;24232;-65
2022/08/05 02:24:55;;;;;;;8.00;4.40;;;;;;;19.72;72.77;100025.22;4172514;28;20330;-67
2022/08/05 02:27:25;;;;;;;9.30;4.53;;;;;;;19.79;72.58;100023.31;4151386;28;22079;-64
2022/08/05 02:30:12;;;;;;;11.17;4.50;;;;;;;19.73;72.83;100019.59;4164211;28;20305;-68
2022/08/05 02:32:40;;;;;;;8.80;4.53;;;;;;;19.69;73.33;100022.94;4162297;28;20337;-65
2022/08/05 02:35:10;;;;;;;6.87;4.47;;;;;;;19.67;73.04;100017.75;4165929;28;22518;-67
2022/08/05 02:37:40;;;;;;;8.67;4.40;;;;;;;19.73;73.27;100021.47;4162146;28;20233;-64
2022/08/05 02:40:20;;;;;;;16.10;5.03;;;;;;;19.65;73.66;100013.59;4149157;28;20325;-65
2022/08/05 02:42:47;;;;;;;6.97;4.47;;;;;;;19.66;73.60;100015.25;4152559;28;20244;-65
2022/08/05 02:45:23;;;;;;;9.37;4.93;;;;;;;19.74;73.11;100018.56;4154587;28;20361;-64
2022/08/05 02:47:52;;;;;;;8.63;4.50;;;;;;;19.68;73.56;100013.16;4151662;28;20254;-64
2022/08/05 02:50:40;;;;;;;8.47;4.93;;;;;;;19.69;73.84;100017.53;4170309;28;22392;-64
2022/08/05 02:53:10;;;;;;;8.47;4.70;;;;;;;19.58;74.14;100009.06;4151337;28;20246;-65
2022/08/05 02:55:46;;;;;;;7.17;4.80;;;;;;;19.67;73.77;100015.06;4151970;28;21183;-64
2022/08/05 02:58:25;;;;;;;11.57;5.07;;;;;;;19.65;74.19;100013.59;4165203;28;20298;-66
2022/08/05 03:00:55;;;;;;;7.77;4.70;;;;;;;19.74;73.91;100007.78;4168535;28;20289;-67
2022/08/05 03:03:22;;;;;;;6.83;4.80;;;;;;;19.63;74.17;100000.31;4163925;28;20630;-65
2022/08/05 03:05:49;;;;;;;8.47;4.80;;;;;;;19.64;74.58;100001.13;4163777;28;20261;-64
2022/08/05 03:08:37;;;;;;;11.70;5.17;;;;;;;19.61;74.69;100002.41;4169177;28;20234;-65
2022/08/05 03:11:19;;;;;;;10.33;4.73;;;;;;;19.55;75.12;99990.59;4167138;28;20239;-65
2022/08/05 03:14:05;;;;;;;12.40;5.37;;;;;;;19.51;75.26;99997.47;4172399;28;21815;-63
2022/08/05 03:16:33;;;;;;;10.80;5.27;;;;;;;19.59;75.16;99990.97;4160236;28;21848;-65
2022/08/05 03:19:01;;;;;;;9.73;5.03;;;;;;;19.63;74.93;99999.50;4165603;28;22382;-63
2022/08/05 03:21:38;;;;;;;13.87;5.57;;;;;;;19.56;75.66;99999.53;4166992;28;21631;-68
2022/08/05 03:24:17;;;;;;;10.00;5.13;;;;;;;19.56;75.10;99991.44;4162385;28;20892;-64
2022/08/05 03:26:55;;;;;;;6.93;4.90;;;;;;;19.63;75.10;99992.22;4160326;28;20241;-64
2022/08/05 03:29:22;;;;;;;8.67;5.23;;;;;;;19.63;74.98;99994.91;4170220;28;20238;-65
2022/08/05 03:31:49;;;;;;;9.80;6.00;;;;;;;19.65;75.38;99992.84;4182595;28;20282;-65
2022/08/05 03:34:26;;;;;;;10.13;5.77;;;;;;;19.66;75.01;99997.19;4166545;28;22123;-65
2022/08/05 03:36:54;;;;;;;10.30;6.67;;;;;;;19.64;75.25;99985.75;4178638;28;20250;-66
2022/08/05 03:39:21;;;;;;;13.90;6.67;;;;;;;19.76;74.71;99994.03;4169905;28;20286;-66
2022/08/05 03:41:53;;;;;;;12.63;6.70;;;;;;;19.75;75.00;99990.50;4172020;28;20250;-66
2022/08/05 03:44:22;;;;;;;13.03;6.80;;;;;;;19.84;74.80;99995.69;4163937;28;22644;-65
2022/08/05 03:46:49;;;;;;;13.70;6.47;;;;;;;19.80;74.82;99996.09;4185744;28;20915;-65
2022/08/05 03:49:15;;;;;;;13.50;6.87;;;;;;;19.84;75.09;99995.69;4175113;28;20298;-65
2022/08/05 03:51:49;;;;;;;10.37;6.77;;;;;;;19.92;74.68;99998.09;4173169;28;22570;-64
2022/08/05 03:54:44;;;;;;;10.97;6.50;;;;;;;19.90;74.93;100000.19;4174464;28;20237;-65
2022/08/05 03:57:32;;;;;;;13.47;7.17;;;;;;;19.89;75.01;99993.16;4177477;28;20294;-64
2022/08/05 04:00:10;;;;;;;12.17;7.00;;;;;;;19.98;74.85;99997.25;4165474;28;21684;-66
2022/08/05 04:02:43;;;;;;;11.20;6.67;;;;;;;19.99;74.97;99999.75;4164556;28;20671;-64
2022/08/05 04:05:27;;;;;;;13.20;7.50;;;;;;;19.99;75.01;99988.94;4167901;28;21191;-65
2022/08/05 04:08:01;;;;;;;14.10;7.50;;;;;;;20.06;74.72;99990.75;4173087;28;20274;-65
2022/08/05 04:10:28;;;;;;;12.30;7.00;;;;;;;20.11;74.42;99997.19;4174641;28;20234;-63
2022/08/05 04:13:04;;;;;;;13.73;7.47;;;;;;;20.07;74.59;99998.66;4158458;28;20242;-65
2022/08/05 04:15:31;;;;;;;15.27;8.07;;;;;;;20.20;74.23;99995.84;4163002;28;20229;-65
2022/08/05 04:18:03;;;;;;;12.40;7.17;;;;;;;20.27;73.51;99993.09;4188143;28;20399;-65
2022/08/05 04:20:34;;;;;;;12.83;7.80;;;;;;;20.28;73.84;99997.47;4177116;28;20293;-64
2022/08/05 04:23:00;;;;;;;14.40;8.30;;;;;;;20.32;73.61;99997.84;4156013;28;22291;-65
2022/08/05 04:25:29;;;;;;;11.40;7.80;;;;;;;20.32;73.87;99997.84;4169199;28;20882;-64
2022/08/05 04:28:16;;;;;;;13.03;7.07;;;;;;;20.41;73.54;100001.91;4171819;28;20247;-63
2022/08/05 04:30:43;;;;;;;11.00;7.63;;;;;;;20.42;73.67;99998.19;4155610;28;22263;-64
2022/08/05 04:33:10;;;;;;;14.13;8.17;;;;;;;20.50;73.25;99997.91;4158738;28;22149;-66
2022/08/05 04:35:37;;;;;;;12.70;8.07;;;;;;;20.59;73.54;99999.31;4173315;28;20239;-66
2022/08/05 04:38:24;;;;;;;14.83;7.60;;;;;;;20.54;73.21;99995.59;4168769;28;20238;-65
2022/08/05 04:41:05;;;;;;;11.07;7.60;;;;;;;20.60;73.44;99990.16;4160817;28;20245;-64
2022/08/05 04:43:34;;;;;;;11.13;7.77;;;;;;;20.66;72.88;99989.25;4172612;28;21617;-67
2022/08/05 04:46:03;;;;;;;12.57;7.60;;;;;;;20.83;72.50;99988.69;4160373;28;20305;-65
2022/08/05 04:48:30;;;;;;;11.77;8.03;;;;;;;20.96;72.41;99991.28;4166794;28;20262;-67
2022/08/05 04:50:57;;;;;;;19.47;8.73;;;;;;;20.99;72.18;99996.22;4170198;28;20302;-69
2022/08/05 04:53:29;;;;;;;12.57;7.57;;;;;;;21.11;71.42;99992.78;4172976;28;20234;-66
2022/08/05 04:56:00;;;;;;;15.13;7.87;;;;;;;21.16;72.12;99990.22;4168189;28;20243;-69
2022/08/05 04:58:47;;;;;;;16.10;7.60;;;;;;;21.39;70.76;99993.06;4168859;28;21563;-68
2022/08/05 05:01:13;;;;;;;12.47;7.70;;;;;;;21.34;70.95;99994.81;4163428;28;20235;-64
2022/08/05 05:03:59;;;;;;;17.60;8.47;;;;;;;21.44;70.62;100004.06;4165244;28;20615;-65
2022/08/05 05:06:27;;;;;;;13.53;7.23;;;;;;;21.50;70.73;100000.47;4157314;28;20243;-70
2022/08/05 05:09:10;;;;;;;12.30;7.47;;;;;;;21.64;69.59;100011.13;4166627;28;20915;-67
2022/08/05 05:11:42;;;;;;;17.00;7.33;;;;;;;21.69;69.96;100003.97;4161724;28;20939;-67
2022/08/05 05:14:22;;;;;;;12.13;8.00;;;;;;;21.76;69.22;100008.47;4168288;28;20234;-65
2022/08/05 05:16:57;;;;;;;16.93;7.87;;;;;;;21.89;68.55;100010.97;4176246;28;20233;-65
2022/08/05 05:19:24;;;;;;;9.87;7.30;;;;;;;21.97;68.65;100016.09;4173208;28;23911;-65
2022/08/05 05:21:52;;;;;;;14.57;7.73;;;;;;;22.05;67.98;100010.31;4169596;28;21328;-63
2022/08/05 05:24:21;;;;;;;12.43;7.33;;;;;;;22.21;67.51;100027.03;4168533;28;20434;-65
2022/08/05 05:27:07;;;;;;;16.93;7.70;;;;;;;22.37;66.80;100025.53;4168440;28;20242;-65
2022/08/05 05:29:35;;;;;;;14.97;7.67;;;;;;;22.37;66.39;100025.53;4170119;28;20238;-65
2022/08/05 05:32:22;;;;;;;11.23;7.20;;;;;;;22.44;66.51;100031.69;4170552;28;21664;-67
2022/08/05 05:34:48;;;;;;;17.53;7.77;;;;;;;22.63;65.64;100032.41;4164122;28;20247;-66
2022/08/05 05:37:17;;;;;;;12.47;7.83;;;;;;;22.69;65.37;100035.03;4184424;28;20341;-66
2022/08/05 05:39:44;;;;;;;12.43;7.40;;;;;;;22.70;66.11;100033.94;4168452;28;20239;-65
2022/08/05 05:42:11;;;;;;;16.70;7.57;;;;;;;22.84;64.56;100036.44;4167573;28;20279;-63
2022/08/05 05:44:39;;;;;;;12.17;7.40;;;;;;;22.86;64.49;100039.75;4171158;28;20250;-67
2022/08/05 05:47:11;;;;;;;11.50;7.43;;;;;;;23.07;63.86;100039.19;4167030;28;20360;-65
2022/08/05 05:49:47;;;;;;;13.90;7.17;;;;;;;23.13;63.07;100040.13;4168671;28;21183;-66
2022/08/05 05:52:23;;;;;;;12.60;6.63;;;;;;;23.36;62.07;100047.41;4172600;28;20237;-64
2022/08/05 05:55:00;;;;;;;15.57;7.07;;;;;;;23.58;60.91;100050.31;4158992;28;20481;-66
2022/08/05 05:57:33;;;;;;;10.27;7.20;;;;;;;23.72;60.68;100034.59;4167970;28;20664;-65
2022/08/05 06:00:20;;;;;;;10.23;6.73;;;;;;;24.60;57.59;100044.09;4170975;28;20257;-65
2022/08/05 06:02:56;;;;;;;10.90;6.70;;;;;;;26.02;53.01;100049.06;4165747;28;22076;-66
2022/08/05 06:05:24;;;;;;;12.40;6.90;;;;;;;26.96;48.86;100055.06;4164918;28;20242;-64
2022/08/05 06:07:51;;;;;;;13.33;6.77;;;;;;;27.82;46.63;100061.28;4171961;28;20647;-69
2022/08/05 06:10:27;;;;;;;13.57;6.07;;;;;;;28.42;44.11;100059.75;4171367;28;21111;-66
2022/08/05 06:12:54;;;;;;;14.77;6.13;;;;;;;28.90;43.24;100068.56;4161211;28;20242;-66
2022/08/05 06:15:23;;;;;;;13.70;5.77;;;;;;;29.99;40.05;100064.38;4169397;28;20701;-67
2022/08/05 06:18:09;;;;;;;12.88;5.88;;;;;;;31.06;37.28;100082.00;4152302;28;20298;-65
2022/08/05 06:20:37;;;;;;;11.60;5.28;;;;;;;32.05;34.15;100084.16;4171108;28;20249;-66
2022/08/05 06:23:03;;;;;;;9.95;5.28;;;;;;;31.59;34.76;100084.75;4168297;28;22101;-68
2022/08/05 06:25:30;;;;;;;10.32;6.35;;;;;;;30.52;37.20;100077.53;4178080;28;20246;-66
2022/08/05 06:28:17;;;;;;;8.68;6.50;;;;;;;30.67;36.85;100072.72;4173138;28;21943;-66
2022/08/05 06:30:47;;;;;;;12.68;5.40;;;;;;;31.59;35.11;100083.94;4183795;28;22301;-65
2022/08/05 06:33:14;;;;;;;10.25;5.22;;;;;;;32.45;33.09;100086.59;4165070;28;21259;-66
2022/08/05 06:35:44;;;;;;;11.30;5.20;;;;;;;31.98;33.67;100077.41;4167989;28;21383;-66
2022/08/05 06:38:31;;;;;;;12.00;5.53;;;;;;;32.19;34.03;100073.22;4168452;28;20254;-67
2022/08/05 06:41:03;;;;;;;17.52;5.10;;;;;;;32.79;32.71;100084.41;4169931;28;22561;-66
2022/08/05 06:43:30;;;;;;;6.97;4.68;;;;;;;33.57;31.64;100083.84;4160951;28;21116;-66
2022/08/05 06:46:16;;;;;;;8.00;4.25;;;;;;;35.53;28.90;100095.41;4166584;28;20335;-67
2022/08/05 06:48:44;;;;;;;12.13;4.80;;;;;;;35.83;27.57;100090.16;4154963;28;20234;-70
2022/08/05 06:51:22;;;;;;;8.18;4.38;;;;;;;36.06;27.13;100093.59;4168736;28;20294;-67
2022/08/05 06:54:00;;;;;;;11.18;4.88;;;;;;;36.01;26.92;100091.81;4169697;28;20346;-67
2022/08/05 06:56:28;;;;;;;12.18;4.45;;;;;;;35.23;27.83;100081.28;4187442;28;20241;-66
2022/08/05 06:58:58;;;;;;;10.15;4.28;;;;;;;36.01;27.18;100090.97;4164563;28;20265;-68
2022/08/05 07:01:25;;;;;;;6.80;4.22;;;;;;;36.07;27.08;100087.72;4175031;28;20302;-65
2022/08/05 07:04:00;;;;;;;9.18;3.95;;;;;;;36.33;26.27;100086.94;4178583;28;25433;-65
2022/08/05 07:06:27;;;;;;;6.00;3.95;;;;;;;36.42;25.93;100090.53;4173616;28;20410;-64
2022/08/05 07:08:54;;;;;;;6.60;3.35;;;;;;;36.69;25.78;100083.00;4161629;28;20254;-66
2022/08/05 07:11:21;;;;;;;6.28;3.33;;;;;;;37.24;25.15;100090.53;4168478;28;20926;-68
2022/08/05 07:17:01;;;;;;;11.38;3.40;;;;;;;38.53;23.85;100092.84;4186802;28;20322;-59
2022/08/05 07:19:50;;;;;;;9.32;3.65;;;;;;;39.18;22.35;100095.94;4178938;28;20332;-71
2022/08/05 07:22:37;;;;;;;9.88;3.70;;;;;;;39.47;22.19;100097.69;4169943;28;20232;-69
2022/08/05 07:25:04;;;;;;;11.93;3.40;;;;;;;40.19;21.59;100099.13;4162001;28;20319;-70
2022/08/05 07:27:51;;;;;;;7.85;3.40;;;;;;;38.48;23.07;100079.16;4181856;28;20239;-75
2022/08/05 07:30:29;;;;;;;6.05;2.97;;;;;;;37.95;24.10;100083.47;4168165;28;20237;-74
2022/08/05 07:33:03;;;;;;;10.93;3.33;;;;;;;39.02;22.64;100098.56;4164614;28;20352;-70
2022/08/05 07:35:35;;;;;;;6.03;3.33;;;;;;;38.26;23.34;100087.84;4174182;28;20237;-70
2022/08/05 07:38:22;;;;;;;8.55;3.10;;;;;;;38.64;22.79;100082.13;4170440;28;20341;-69
2022/08/05 07:41:00;;;;;;;17.33;3.70;;;;;;;39.33;22.02;100094.44;4166159;28;21486;-72
2022/08/05 07:43:47;;;;;;;5.05;3.15;;;;;;;38.04;23.87;100087.03;4170223;28;20314;-75
2022/08/05 07:46:13;;;;;;;11.75;3.80;;;;;;;36.54;25.55;100065.72;4152254;28;21481;-71
2022/08/05 07:48:51;;;;;;;9.55;3.20;;;;;;;35.12;28.31;100060.56;4159467;28;20238;-73
2022/08/05 07:51:32;;;;;;;8.55;3.15;;;;;;;34.44;29.12;100057.88;4152680;28;21607;-69
2022/08/05 07:54:04;;;;;;;7.38;3.20;;;;;;;33.37;31.23;100041.72;4172647;28;21205;-72
2022/08/05 07:56:37;;;;;;;8.73;3.40;;;;;;;32.72;32.05;100030.81;4187634;28;21862;-70
2022/08/05 07:59:24;;;;;;;9.93;3.08;;;;;;;32.53;33.29;100025.38;4171051;28;20242;-72
2022/08/05 08:02:09;;;;;;;9.15;3.10;;;;;;;32.25;32.18;100025.22;4162757;28;20322;-75
2022/08/05 08:04:46;;;;;;;6.10;3.20;;;;;;;31.51;34.67;100020.19;4172703;28;22708;-70
2022/08/05 08:07:14;;;;;;;5.82;3.20;;;;;;;31.69;35.31;100020.53;4166564;28;20551;-71
2022/08/05 08:09:42;;;;;;;6.70;3.13;;;;;;;32.20;33.12;100030.00;4162946;28;22912;-71
2022/08/05 08:12:09;;;;;;;15.70;3.85;;;;;;;32.39;33.39;100028.84;4149913;28;20234;-72
2022/08/05 08:14:55;;;;;;;10.35;3.22;;;;;;;31.65;34.68;100028.53;4177157;28;20646;-71
2022/08/05 08:17:27;;;;;;;12.50;3.20;;;;;;;32.08;34.16;100024.97;4164691;28;20227;-71
2022/08/05 08:19:55;;;;;;;6.95;3.53;;;;;;;32.33;33.62;100030.03;4170143;28;20239;-71
2022/08/05 08:22:42;;;;;;;10.43;3.10;;;;;;;32.44;32.92;100027.13;4180627;28;21083;-71
2022/08/05 08:25:09;;;;;;;6.63;3.10;;;;;;;31.99;34.47;100021.25;4179703;28;20241;-71
2022/08/05 08:27:43;;;;;;;18.75;3.65;;;;;;;31.31;35.53;100020.44;4181828;28;20639;-71
2022/08/05 08:30:16;;;;;;;6.22;3.35;;;;;;;31.49;34.47;100016.94;4163322;28;20238;-71
2022/08/05 08:32:59;;;;;;;6.38;2.95;;;;;;;31.64;34.36;100012.34;4174078;28;20608;-71
2022/08/05 08:35:35;;;;;;;5.57;3.55;;;;;;;31.47;35.44;100008.16;4179837;28;20245;-70
2022/08/05 08:38:18;;;;;;;9.35;3.28;;;;;;;30.83;36.40;100015.69;4174978;28;21158;-72
2022/08/05 08:41:06;;;;;;;7.50;3.22;;;;;;;31.03;36.22;100014.69;4180037;28;20298;-73
2022/08/05 08:43:35;;;;;;;8.10;3.20;;;;;;;31.06;36.18;100014.09;4182017;28;20253;-71
2022/08/05 08:46:22;;;;;;;8.90;3.55;;;;;;;31.32;34.70;100022.06;4179176;28;21238;-71
2022/08/05 08:48:50;;;;;;;9.20;3.10;;;;;;;31.06;35.37;100011.34;4177854;28;20584;-72
2022/08/05 08:51:37;;;;;;;13.27;3.58;;;;;;;30.85;36.52;100004.44;4204566;28;20266;-71
2022/08/05 08:54:25;;;;;;;9.60;3.08;;;;;;;30.89;35.82;100009.06;4184116;28;20390;-71
2022/08/05 08:56:53;;;;;;;5.25;3.35;;;;;;;31.18;34.85;100012.88;4175073;28;20245;-70
2022/08/05 08:59:22;;;;;;;7.10;3.10;;;;;;;31.32;35.03;100013.81;4164475;28;20239;-71
2022/08/05 09:01:53;;;;;;;5.77;3.50;;;;;;;30.94;36.06;100002.72;4181601;28;20571;-72
2022/08/05 09:04:26;;;;;;;9.48;3.45;;;;;;;30.91;36.57;100006.03;4177729;28;25738;-73
2022/08/05 09:06:56;;;;;;;6.53;3.30;;;;;;;31.06;35.80;100000.38;4177970;28;20557;-71
2022/08/05 09:09:24;;;;;;;6.03;3.05;;;;;;;31.05;34.71;100004.25;4173106;28;20238;-72
2022/08/05 09:11:52;;;;;;;8.05;3.28;;;;;;;30.85;35.33;100008.00;4163500;28;20927;-73
2022/08/05 09:14:24;;;;;;;6.50;2.90;;;;;;;30.77;36.43;100005.06;4175848;28;21740;-72
2022/08/05 09:17:14;;;;;;;6.18;2.63;;;;;;;30.75;35.22;99999.03;4180255;28;20923;-74
2022/08/05 09:20:03;;;;;;;6.18;3.10;;;;;;;30.77;36.33;100003.13;4190449;28;20234;-74
2022/08/05 09:23:07;;;;;;;7.38;3.10;;;;;;;30.81;35.61;100008.84;4171966;28;20245;-71
2022/08/05 09:25:35;;;;;;;8.27;3.17;;;;;;;30.61;35.30;99991.47;4191888;28;21377;-73
2022/08/05 09:28:23;;;;;;;9.00;3.30;;;;;;;30.51;35.77;99997.06;4175822;28;20436;-72
2022/08/05 09:31:04;;;;;;;4.20;2.95;;;;;;;30.53;35.14;99983.84;4191973;28;20254;-74
2022/08/05 09:33:57;;;;;;;5.40;2.78;;;;;;;30.27;36.39;99981.34;4186522;28;20241;-72
2022/08/05 09:36:38;;;;;;;7.15;3.15;;;;;;;30.41;36.91;99977.91;4180748;28;20235;-71
2022/08/05 09:39:23;;;;;;;9.95;3.35;;;;;;;30.34;37.06;99974.69;4192613;28;20425;-71
2022/08/05 09:42:05;;;;;;;7.43;2.70;;;;;;;30.34;36.04;99983.75;4185281;28;23106;-73
2022/08/05 09:44:37;;;;;;;4.47;2.85;;;;;;;30.30;36.14;99974.47;4182014;28;20296;-73
2022/08/05 09:47:12;;;;;;;10.95;2.72;;;;;;;30.32;36.94;99976.91;4186327;28;20233;-72
2022/08/05 09:49:43;;;;;;;7.95;3.40;;;;;;;30.52;35.97;99967.69;4166649;28;20767;-73
2022/08/05 09:52:33;;;;;;;10.80;2.90;;;;;;;30.28;36.25;99973.94;4216903;28;20507;-73
2022/08/05 09:55:08;;;;;;;7.18;2.85;;;;;;;30.04;37.63;99968.31;4167037;28;20261;-72
2022/08/05 09:57:55;;;;;;;4.53;2.97;;;;;;;30.14;35.76;99976.47;4188650;28;20436;-71
2022/08/05 10:00:24;;;;;;;7.32;2.55;;;;;;;30.13;36.12;99974.81;4173441;28;20249;-76
2022/08/05 10:02:55;;;;;;;7.57;3.53;;;;;;;30.25;36.25;99971.72;4201743;28;22567;-72
2022/08/05 10:05:26;;;;;;;6.85;3.10;;;;;;;30.23;36.91;99966.53;4181205;28;20246;-71
2022/08/05 10:07:55;;;;;;;5.85;2.70;;;;;;;30.04;37.18;99960.06;4190008;28;20238;-73
2022/08/05 10:10:47;;;;;;;8.15;3.10;;;;;;;30.08;36.65;99955.66;4180222;28;20237;-73
2022/08/05 10:13:34;;;;;;;5.93;2.70;;;;;;;30.05;37.21;99953.50;4180775;28;20235;-71
2022/08/05 10:16:35;;;;;;;4.28;2.95;;;;;;;30.08;36.85;99944.69;4172121;28;20604;-75
2022/08/05 10:19:17;;;;;;;4.90;2.67;;;;;;;29.97;38.10;99937.63;4161771;28;21491;-74
2022/08/05 10:21:49;;;;;;;8.27;3.22;;;;;;;30.08;38.03;99939.19;4183381;28;25131;-75
2022/08/05 10:24:19;;;;;;;6.53;2.90;;;;;;;30.04;38.44;99936.22;4165848;28;20242;-67
2022/08/05 10:26:54;;;;;;;13.43;3.10;;;;;;;29.97;37.60;99922.00;4176998;28;20701;-70
2022/08/05 10:29:28;;;;;;;8.70;2.70;;;;;;;29.82;38.70;99922.94;4171285;28;20313;-72
2022/08/05 10:32:15;;;;;;;5.55;2.90;;;;;;;30.02;37.24;99932.13;4171404;28;20427;-70
2022/08/05 10:35:02;;;;;;;5.22;3.00;;;;;;;30.13;37.20;99928.16;4162255;28;21606;-69
2022/08/05 10:37:30;;;;;;;5.47;2.70;;;;;;;30.25;37.15;99931.38;4169095;28;20286;-69
2022/08/05 10:40:14;;;;;;;6.25;3.00;;;;;;;30.39;37.14;99930.72;4182905;28;20238;-71
2022/08/05 10:42:47;;;;;;;8.88;2.65;;;;;;;30.60;38.39;99925.84;4180809;28;20239;-70
2022/08/05 10:45:14;;;;;;;5.75;2.78;;;;;;;30.65;36.25;99926.63;4178254;28;20276;-71
2022/08/05 10:48:36;;;;;;;4.97;2.80;;;;;;;30.35;36.62;99924.19;4167805;28;21889;-68
2022/08/05 10:51:23;;;;;;;8.07;2.80;;;;;;;30.33;37.22;99924.47;4176136;28;21767;-71
2022/08/05 10:53:59;;;;;;;10.55;3.28;;;;;;;30.27;38.41;99920.97;4163869;28;20246;-70
2022/08/05 10:56:43;;;;;;;9.67;3.30;;;;;;;30.48;36.25;99918.00;4177229;28;25442;-69
2022/08/05 10:59:10;;;;;;;6.65;2.70;;;;;;;30.40;36.20;99918.63;4164409;28;20234;-67
2022/08/05 11:02:08;;;;;;;7.50;3.00;;;;;;;30.44;35.77;99916.97;4164631;28;20309;-69
2022/08/05 11:04:55;;;;;;;5.82;2.78;;;;;;;30.16;36.48;99911.16;4195755;28;20249;-70
2022/08/05 11:07:23;;;;;;;6.68;3.15;;;;;;;30.22;36.58;99904.47;4180343;28;20243;-67
2022/08/05 11:10:23;;;;;;;5.22;3.10;;;;;;;30.33;36.45;99888.78;4151137;28;20242;-71
2022/08/05 11:12:53;;;;;;;10.98;2.63;;;;;;;30.11;36.85;99893.88;4183523;28;20282;-72
2022/08/05 11:15:26;;;;;;;7.53;2.78;;;;;;;30.12;36.93;99888.13;4183851;28;20374;-67
2022/08/05 11:18:26;;;;;;;5.93;2.70;;;;;;;30.24;36.26;99896.78;4176341;28;20256;-70
2022/08/05 11:20:58;;;;;;;6.32;2.67;;;;;;;30.44;36.01;99892.25;4182147;28;22257;-71
2022/08/05 11:23:52;;;;;;;4.32;2.72;;;;;;;30.36;36.02;99890.94;4167038;28;21179;-70
2022/08/05 11:26:38;;;;;;;8.45;3.28;;;;;;;30.40;36.36;99882.94;4174019;28;20607;-69
2022/08/05 11:29:36;;;;;;;6.38;2.88;;;;;;;30.25;36.95;99892.94;4197587;28;20294;-70
2022/08/05 11:32:27;;;;;;;5.37;3.10;;;;;;;30.27;36.95;99898.16;4186188;28;20245;-69
2022/08/05 11:34:54;;;;;;;9.77;3.22;;;;;;;30.60;35.59;99877.25;4175447;28;20300;-69
2022/08/05 11:37:52;;;;;;;5.85;2.85;;;;;;;30.58;34.88;99893.19;4172803;28;20251;-69
2022/08/05 11:41:01;;;;;;;4.43;3.30;;;;;;;30.64;36.17;99892.00;4212600;28;20485;-69
2022/08/05 11:43:54;;;;;;;8.63;3.05;;;;;;;30.92;35.36;99881.28;4164652;28;23232;-67
2022/08/05 11:46:42;;;;;;;3.88;2.80;;;;;;;30.77;35.98;99873.19;4167441;28;20235;-71
2022/08/05 11:49:29;;;;;;;9.15;3.10;;;;;;;30.76;36.05;99882.53;4180354;28;21753;-70
2022/08/05 11:51:59;;;;;;;3.85;3.22;;;;;;;30.54;36.73;99880.34;4148619;28;20306;-70
2022/08/05 11:54:28;;;;;;;6.53;2.85;;;;;;;30.73;36.32;99874.88;4162015;28;21071;-71
2022/08/05 11:57:01;;;;;;;9.05;3.20;;;;;;;30.80;37.10;99880.84;4165416;28;20230;-70
2022/08/05 11:59:48;;;;;;;4.55;2.85;;;;;;;30.96;34.51;99873.28;4151328;28;20298;-71
2022/08/05 12:02:27;;;;;;;6.53;3.00;;;;;;;31.03;34.54;99877.28;4182981;28;20244;-74
2022/08/05 12:05:00;;;;;;;3.55;2.70;;;;;;;30.95;34.71;99879.84;4159439;28;21859;-73
2022/08/05 12:07:36;;;;;;;6.03;3.00;;;;;;;31.05;34.98;99877.81;4180291;28;20301;-70
2022/08/05 12:10:26;;;;;;;7.78;3.55;;;;;;;31.03;35.05;99869.03;4170362;28;20295;-72